Impacts TAF Board
For situational awareness. Not to be used for flight planning purposes.
IDs:

KBTR - Baton Rouge/Ryan Fld, LA, US

Issued at 1738 UTC 23 Jan 2019
Updated at 1841 UTC 23 Jan 2019
Potential Impact None Slight Moderate High
Time<<24/07Z 24/08Z 24/09Z 24/10Z 24/11Z 24/12Z 24/13Z 24/14Z 24/15Z 24/16Z 24/17Z 24/18Z 24/19Z>>
Type PRVL PRVL PRVL PRVL PRVL PRVL PRVL PRVL PRVL PRVL PRVL
VIS >6 >6 >6 >6 >6 >6 >6 >6 >6 >6 >6
CIG 50 -- -- -- -- -- -- -- -- -- --
Cover OVC SCT SCT SCT SCT SCT SCT SCT SCT SCT SCT
FltCat VFR VFR VFR VFR VFR VFR VFR VFR VFR VFR VFR
WX -- -- -- -- -- -- -- -- -- -- --
WDir 300 290 290 290 290 290 290 290 290 290 290
WSpd 9 5 5 5 5 5 5 5 5 5 5
WGst -- -- -- -- -- -- -- -- -- -- --
Raw TAF
KBTR 231738Z 2318/2418 30010KT 5SM -SHRA BKN008 OVC020
  TEMPO 2322/2324 2SM RA BR
  FM240100 30009KT P6SM OVC020
  FM240500 30009KT P6SM SCT020 OVC050
  FM240800 29005KT P6SM SCT100


METAR Board
Radar Display
Forecast Discussion
For situational awareness. Not to be used for flight planning purposes.